sensor_id;sensor_type;location;lat;lon;timestamp;pressure;altitude;pressure_sealevel;temperature;humidity
15568;BME280;7885;42.596;23.044;2024-02-16T00:01:41;93402.09;;;4.73;78.71
15568;BME280;7885;42.596;23.044;2024-02-16T00:04:08;93422.66;;;4.93;78.57
15568;BME280;7885;42.596;23.044;2024-02-16T00:06:35;93416.13;;;4.94;78.19
15568;BME280;7885;42.596;23.044;2024-02-16T00:09:01;93421.09;;;4.92;78.32
15568;BME280;7885;42.596;23.044;2024-02-16T00:11:28;93397.25;;;4.78;78.12
15568;BME280;7885;42.596;23.044;2024-02-16T00:13:55;93385.09;;;4.56;78.92
15568;BME280;7885;42.596;23.044;2024-02-16T00:16:23;93427.09;;;4.85;78.64
15568;BME280;7885;42.596;23.044;2024-02-16T00:18:51;93382.91;;;4.46;78.94
15568;BME280;7885;42.596;23.044;2024-02-16T00:21:17;93424.81;;;4.72;79.49
15568;BME280;7885;42.596;23.044;2024-02-16T00:30:28;93385.00;;;4.37;79.60
15568;BME280;7885;42.596;23.044;2024-02-16T00:32:56;93413.00;;;4.48;79.83
15568;BME280;7885;42.596;23.044;2024-02-16T00:35:23;93428.25;;;4.56;80.42
15568;BME280;7885;42.596;23.044;2024-02-16T00:37:50;93418.16;;;4.53;80.15
15568;BME280;7885;42.596;23.044;2024-02-16T00:40:17;93416.56;;;4.52;79.97
15568;BME280;7885;42.596;23.044;2024-02-16T00:42:44;93398.47;;;4.37;80.00
15568;BME280;7885;42.596;23.044;2024-02-16T00:45:11;93439.63;;;4.66;79.00
15568;BME280;7885;42.596;23.044;2024-02-16T00:47:38;93423.88;;;4.52;78.73
15568;BME280;7885;42.596;23.044;2024-02-16T00:50:07;93392.91;;;4.18;78.61
15568;BME280;7885;42.596;23.044;2024-02-16T00:52:34;93429.56;;;4.35;78.27
15568;BME280;7885;42.596;23.044;2024-02-16T00:55:02;93425.03;;;4.11;80.70
15568;BME280;7885;42.596;23.044;2024-02-16T00:57:30;93430.88;;;4.13;80.56
15568;BME280;7885;42.596;23.044;2024-02-16T00:59:58;93427.09;;;4.02;79.83
15568;BME280;7885;42.596;23.044;2024-02-16T01:02:25;93430.09;;;4.00;80.49
15568;BME280;7885;42.596;23.044;2024-02-16T01:04:53;93415.91;;;3.88;81.12
15568;BME280;7885;42.596;23.044;2024-02-16T01:07:24;93392.94;;;3.66;82.37
15568;BME280;7885;42.596;23.044;2024-02-16T01:09:51;93381.28;;;3.74;81.78
15568;BME280;7885;42.596;23.044;2024-02-16T01:12:18;93421.50;;;3.95;81.12
15568;BME280;7885;42.596;23.044;2024-02-16T01:14:45;93427.97;;;4.06;82.00
15568;BME280;7885;42.596;23.044;2024-02-16T01:17:11;93400.38;;;3.97;82.36
15568;BME280;7885;42.596;23.044;2024-02-16T01:19:39;93425.44;;;4.25;81.42
15568;BME280;7885;42.596;23.044;2024-02-16T01:22:05;93413.09;;;4.24;81.17
15568;BME280;7885;42.596;23.044;2024-02-16T01:24:34;93398.75;;;4.20;80.64
15568;BME280;7885;42.596;23.044;2024-02-16T01:27:00;93409.06;;;4.18;79.38
15568;BME280;7885;42.596;23.044;2024-02-16T01:29:27;93416.53;;;4.09;77.99
15568;BME280;7885;42.596;23.044;2024-02-16T01:31:54;93393.03;;;3.82;78.70
15568;BME280;7885;42.596;23.044;2024-02-16T01:34:21;93399.00;;;3.75;80.06
15568;BME280;7885;42.596;23.044;2024-02-16T01:36:48;93429.47;;;3.91;81.45
15568;BME280;7885;42.596;23.044;2024-02-16T01:39:14;93426.56;;;3.84;82.16
15568;BME280;7885;42.596;23.044;2024-02-16T01:41:43;93387.69;;;3.58;81.46
15568;BME280;7885;42.596;23.044;2024-02-16T01:44:09;93387.03;;;3.48;80.85
15568;BME280;7885;42.596;23.044;2024-02-16T01:46:36;93421.75;;;3.66;83.55
15568;BME280;7885;42.596;23.044;2024-02-16T01:49:03;93381.53;;;3.45;83.78
15568;BME280;7885;42.596;23.044;2024-02-16T01:51:30;93368.44;;;3.43;83.07
15568;BME280;7885;42.596;23.044;2024-02-16T01:53:58;93406.75;;;3.65;83.76
15568;BME280;7885;42.596;23.044;2024-02-16T01:56:24;93414.78;;;3.77;83.51
15568;BME280;7885;42.596;23.044;2024-02-16T01:58:53;93399.91;;;3.67;83.66
15568;BME280;7885;42.596;23.044;2024-02-16T02:01:20;93384.56;;;3.55;83.79
15568;BME280;7885;42.596;23.044;2024-02-16T02:03:47;93384.56;;;3.55;83.84
15568;BME280;7885;42.596;23.044;2024-02-16T02:06:13;93415.91;;;3.88;83.60
15568;BME280;7885;42.596;23.044;2024-02-16T02:08:40;93397.38;;;3.86;83.04
15568;BME280;7885;42.596;23.044;2024-02-16T02:11:07;93407.13;;;4.03;82.63
15568;BME280;7885;42.596;23.044;2024-02-16T02:13:34;93395.47;;;3.99;82.48
15568;BME280;7885;42.596;23.044;2024-02-16T02:16:03;93420.59;;;4.03;82.16
15568;BME280;7885;42.596;23.044;2024-02-16T02:18:31;93405.00;;;3.96;82.19
15568;BME280;7885;42.596;23.044;2024-02-16T02:20:57;93391.34;;;3.89;82.64
15568;BME280;7885;42.596;23.044;2024-02-16T02:23:26;93402.53;;;3.91;82.36
15568;BME280;7885;42.596;23.044;2024-02-16T02:25:52;93391.03;;;3.79;82.49
15568;BME280;7885;42.596;23.044;2024-02-16T02:28:19;93350.34;;;3.56;83.13
15568;BME280;7885;42.596;23.044;2024-02-16T02:30:49;93412.53;;;3.91;82.37
15568;BME280;7885;42.596;23.044;2024-02-16T02:33:16;93407.19;;;3.79;82.40
15568;BME280;7885;42.596;23.044;2024-02-16T02:35:43;93388.56;;;3.74;82.60
15568;BME280;7885;42.596;23.044;2024-02-16T02:38:09;93385.22;;;3.65;82.80
15568;BME280;7885;42.596;23.044;2024-02-16T02:40:38;93415.91;;;3.88;82.79
15568;BME280;7885;42.596;23.044;2024-02-16T02:43:05;93373.78;;;3.55;82.52
15568;BME280;7885;42.596;23.044;2024-02-16T02:45:31;93414.91;;;3.80;82.75
15568;BME280;7885;42.596;23.044;2024-02-16T02:47:58;93404.06;;;3.65;82.79
15568;BME280;7885;42.596;23.044;2024-02-16T02:50:25;93357.34;;;3.33;83.49
15568;BME280;7885;42.596;23.044;2024-02-16T02:52:52;93370.78;;;3.45;83.50
15568;BME280;7885;42.596;23.044;2024-02-16T02:55:19;93394.31;;;3.60;84.07
15568;BME280;7885;42.596;23.044;2024-02-16T02:57:47;93336.50;;;3.18;84.16
15568;BME280;7885;42.596;23.044;2024-02-16T03:00:14;93363.75;;;3.40;83.98
15568;BME280;7885;42.596;23.044;2024-02-16T03:02:41;93421.53;;;3.71;83.79
15568;BME280;7885;42.596;23.044;2024-02-16T03:05:09;93381.00;;;3.39;83.92
15568;BME280;7885;42.596;23.044;2024-02-16T03:07:36;93377.50;;;3.39;83.46
15568;BME280;7885;42.596;23.044;2024-02-16T03:10:04;93408.34;;;3.53;83.87
15568;BME280;7885;42.596;23.044;2024-02-16T03:12:31;93416.63;;;3.48;83.68
15568;BME280;7885;42.596;23.044;2024-02-16T03:15:00;93411.47;;;3.43;84.73
15568;BME280;7885;42.596;23.044;2024-02-16T03:17:26;93422.81;;;3.37;84.98
15568;BME280;7885;42.596;23.044;2024-02-16T03:19:53;93422.91;;;3.40;84.80
15568;BME280;7885;42.596;23.044;2024-02-16T03:22:20;93407.91;;;3.27;84.86
15568;BME280;7885;42.596;23.044;2024-02-16T03:24:47;93342.56;;;2.90;85.34
15568;BME280;7885;42.596;23.044;2024-02-16T03:27:14;93408.03;;;3.31;84.23
15568;BME280;7885;42.596;23.044;2024-02-16T03:29:41;93423.34;;;3.42;83.89
15568;BME280;7885;42.596;23.044;2024-02-16T03:32:10;93382.69;;;3.08;83.73
15568;BME280;7885;42.596;23.044;2024-02-16T03:34:36;93427.41;;;3.36;84.70
15568;BME280;7885;42.596;23.044;2024-02-16T03:37:03;93374.97;;;3.06;84.49
15568;BME280;7885;42.596;23.044;2024-02-16T03:39:30;93410.13;;;3.25;85.31
15568;BME280;7885;42.596;23.044;2024-02-16T03:41:57;93431.19;;;3.35;84.32
15568;BME280;7885;42.596;23.044;2024-02-16T03:44:24;93325.88;;;2.73;84.89
15568;BME280;7885;42.596;23.044;2024-02-16T03:46:51;93416.09;;;3.31;83.94
15568;BME280;7885;42.596;23.044;2024-02-16T03:49:20;93420.56;;;3.27;81.25
15568;BME280;7885;42.596;23.044;2024-02-16T03:51:46;93419.53;;;3.07;83.20
15568;BME280;7885;42.596;23.044;2024-02-16T03:54:13;93354.31;;;2.62;81.04
15568;BME280;7885;42.596;23.044;2024-02-16T03:56:40;93403.38;;;2.83;80.86
15568;BME280;7885;42.596;23.044;2024-02-16T03:59:07;93357.63;;;2.34;84.57
15568;BME280;7885;42.596;23.044;2024-02-16T04:01:35;93426.88;;;2.62;83.27
15568;BME280;7885;42.596;23.044;2024-02-16T04:04:02;93400.25;;;2.36;83.81
15568;BME280;7885;42.596;23.044;2024-02-16T04:06:30;93405.19;;;2.34;84.92
15568;BME280;7885;42.596;23.044;2024-02-16T04:08:57;93422.91;;;2.47;85.45
15568;BME280;7885;42.596;23.044;2024-02-16T04:11:24;93415.16;;;2.45;85.20
15568;BME280;7885;42.596;23.044;2024-02-16T04:13:54;93409.28;;;2.31;84.75
15568;BME280;7885;42.596;23.044;2024-02-16T04:16:21;93418.63;;;2.34;84.98
15568;BME280;7885;42.596;23.044;2024-02-16T04:18:50;93352.28;;;1.81;86.53
15568;BME280;7885;42.596;23.044;2024-02-16T04:21:17;93407.00;;;2.09;87.49
15568;BME280;7885;42.596;23.044;2024-02-16T04:23:45;93382.31;;;1.95;88.26
15568;BME280;7885;42.596;23.044;2024-02-16T04:26:12;93386.78;;;1.91;88.39
15568;BME280;7885;42.596;23.044;2024-02-16T04:28:39;93429.63;;;2.20;88.46
15568;BME280;7885;42.596;23.044;2024-02-16T04:31:06;93382.63;;;1.93;88.36
15568;BME280;7885;42.596;23.044;2024-02-16T04:33:32;93401.38;;;2.02;87.07
15568;BME280;7885;42.596;23.044;2024-02-16T04:35:59;93426.88;;;2.08;86.42
15568;BME280;7885;42.596;23.044;2024-02-16T04:38:26;93320.91;;;1.40;86.20
15568;BME280;7885;42.596;23.044;2024-02-16T04:40:54;93362.38;;;1.63;87.45
15568;BME280;7885;42.596;23.044;2024-02-16T04:43:21;93399.41;;;1.90;87.44
15568;BME280;7885;42.596;23.044;2024-02-16T04:45:48;93411.06;;;1.94;87.65
15568;BME280;7885;42.596;23.044;2024-02-16T04:48:14;93437.19;;;2.06;87.76
15568;BME280;7885;42.596;23.044;2024-02-16T04:50:43;93413.59;;;1.91;87.00
15568;BME280;7885;42.596;23.044;2024-02-16T04:53:09;93435.56;;;1.93;86.49
15568;BME280;7885;42.596;23.044;2024-02-16T04:55:36;93431.34;;;1.83;85.07
15568;BME280;7885;42.596;23.044;2024-02-16T04:58:04;93422.75;;;1.69;86.35
15568;BME280;7885;42.596;23.044;2024-02-16T05:00:34;93442.41;;;1.82;88.60
15568;BME280;7885;42.596;23.044;2024-02-16T05:03:01;93366.16;;;1.41;88.86
15568;BME280;7885;42.596;23.044;2024-02-16T05:05:28;93423.75;;;1.65;86.76
15568;BME280;7885;42.596;23.044;2024-02-16T05:07:56;93371.63;;;1.24;85.86
15568;BME280;7885;42.596;23.044;2024-02-16T05:10:22;93384.81;;;1.38;88.62
15568;BME280;7885;42.596;23.044;2024-02-16T05:12:49;93431.81;;;1.65;87.71
15568;BME280;7885;42.596;23.044;2024-02-16T05:15:17;93449.94;;;1.68;88.69
15568;BME280;7885;42.596;23.044;2024-02-16T05:17:47;93450.09;;;1.63;89.15
15568;BME280;7885;42.596;23.044;2024-02-16T05:20:14;93444.69;;;1.50;87.36
15568;BME280;7885;42.596;23.044;2024-02-16T05:22:42;93443.56;;;1.51;87.28
15568;BME280;7885;42.596;23.044;2024-02-16T05:25:11;93465.63;;;1.57;85.65
15568;BME280;7885;42.596;23.044;2024-02-16T05:27:37;93460.28;;;1.48;85.24
15568;BME280;7885;42.596;23.044;2024-02-16T05:30:05;93404.09;;;1.02;86.70
15568;BME280;7885;42.596;23.044;2024-02-16T05:32:35;93468.06;;;1.41;87.25
15568;BME280;7885;42.596;23.044;2024-02-16T05:35:02;93400.16;;;0.99;88.20
15568;BME280;7885;42.596;23.044;2024-02-16T05:37:36;93468.75;;;1.30;85.71
15568;BME280;7885;42.596;23.044;2024-02-16T05:40:07;93463.84;;;1.32;87.00
15568;BME280;7885;42.596;23.044;2024-02-16T05:42:45;93450.16;;;1.25;87.29
15568;BME280;7885;42.596;23.044;2024-02-16T05:45:12;93435.22;;;1.24;89.26
15568;BME280;7885;42.596;23.044;2024-02-16T05:51:06;93474.31;;;1.54;89.70
15568;BME280;7885;42.596;23.044;2024-02-16T05:53:32;93452.50;;;1.56;89.44
15568;BME280;7885;42.596;23.044;2024-02-16T05:55:59;93429.41;;;1.42;88.81
15568;BME280;7885;42.596;23.044;2024-02-16T05:58:27;93481.31;;;1.96;88.25
15568;BME280;7885;42.596;23.044;2024-02-16T06:00:54;93451.78;;;1.96;86.59
15568;BME280;7885;42.596;23.044;2024-02-16T06:03:21;93455.69;;;2.20;86.98
15568;BME280;7885;42.596;23.044;2024-02-16T06:05:48;93483.69;;;2.51;87.14
15568;BME280;7885;42.596;23.044;2024-02-16T06:08:16;93492.28;;;2.78;86.69
15568;BME280;7885;42.596;23.044;2024-02-16T06:10:44;93491.63;;;3.26;84.66
15568;BME280;7885;42.596;23.044;2024-02-16T06:13:16;93478.50;;;3.85;81.11
15568;BME280;7885;42.596;23.044;2024-02-16T06:15:43;93476.94;;;3.72;81.22
15568;BME280;7885;42.596;23.044;2024-02-16T06:18:09;93480.75;;;3.71;81.21
15568;BME280;7885;42.596;23.044;2024-02-16T06:20:36;93398.72;;;3.16;80.79
15568;BME280;7885;42.596;23.044;2024-02-16T06:23:03;93503.41;;;3.82;81.39
15568;BME280;7885;42.596;23.044;2024-02-16T06:25:31;93472.69;;;3.71;81.33
15568;BME280;7885;42.596;23.044;2024-02-16T06:27:58;93490.16;;;4.01;81.20
15568;BME280;7885;42.596;23.044;2024-02-16T06:30:25;93485.44;;;4.10;79.97
15568;BME280;7885;42.596;23.044;2024-02-16T06:32:52;93474.75;;;4.14;79.43
15568;BME280;7885;42.596;23.044;2024-02-16T06:35:20;93431.31;;;4.15;79.44
15568;BME280;7885;42.596;23.044;2024-02-16T06:37:47;93486.06;;;5.62;76.65
15568;BME280;7885;42.596;23.044;2024-02-16T06:40:14;93460.19;;;8.24;66.59
15568;BME280;7885;42.596;23.044;2024-02-16T06:42:43;93484.25;;;11.30;55.83
15568;BME280;7885;42.596;23.044;2024-02-16T06:45:11;93492.94;;;13.78;47.05
15568;BME280;7885;42.596;23.044;2024-02-16T06:47:39;93478.66;;;15.64;40.33
15568;BME280;7885;42.596;23.044;2024-02-16T06:50:06;93497.16;;;17.49;36.74
15568;BME280;7885;42.596;23.044;2024-02-16T06:52:33;93485.09;;;18.99;32.74
15568;BME280;7885;42.596;23.044;2024-02-16T06:54:59;93475.72;;;20.21;30.24
15568;BME280;7885;42.596;23.044;2024-02-16T06:57:26;93504.03;;;21.48;27.69
15568;BME280;7885;42.596;23.044;2024-02-16T06:59:55;93458.91;;;22.12;26.66
15568;BME280;7885;42.596;23.044;2024-02-16T07:02:23;93450.09;;;22.94;25.13
15568;BME280;7885;42.596;23.044;2024-02-16T07:04:50;93471.75;;;23.81;23.97
15568;BME280;7885;42.596;23.044;2024-02-16T07:07:17;93466.03;;;24.53;22.96
15568;BME280;7885;42.596;23.044;2024-02-16T07:09:44;93464.28;;;25.22;21.99
15568;BME280;7885;42.596;23.044;2024-02-16T07:12:11;93493.91;;;25.81;21.15
15568;BME280;7885;42.596;23.044;2024-02-16T07:14:38;93465.69;;;26.18;20.79
15568;BME280;7885;42.596;23.044;2024-02-16T07:17:06;93492.41;;;26.83;20.10
15568;BME280;7885;42.596;23.044;2024-02-16T07:19:35;93478.66;;;27.14;20.10
15568;BME280;7885;42.596;23.044;2024-02-16T07:22:02;93463.19;;;27.53;19.48
15568;BME280;7885;42.596;23.044;2024-02-16T07:24:28;93445.97;;;27.81;18.71
15568;BME280;7885;42.596;23.044;2024-02-16T07:26:55;93456.31;;;28.46;18.44
15568;BME280;7885;42.596;23.044;2024-02-16T07:29:22;93444.78;;;29.07;17.94
15568;BME280;7885;42.596;23.044;2024-02-16T07:31:49;93458.94;;;29.77;17.37
15568;BME280;7885;42.596;23.044;2024-02-16T07:34:19;93462.72;;;30.72;16.97
15568;BME280;7885;42.596;23.044;2024-02-16T07:36:45;93476.44;;;31.65;16.11
15568;BME280;7885;42.596;23.044;2024-02-16T07:39:12;93450.00;;;31.84;15.77
15568;BME280;7885;42.596;23.044;2024-02-16T07:41:39;93497.97;;;32.66;15.45
15568;BME280;7885;42.596;23.044;2024-02-16T07:44:06;93497.13;;;33.07;15.02
15568;BME280;7885;42.596;23.044;2024-02-16T07:46:33;93464.91;;;33.02;14.74
15568;BME280;7885;42.596;23.044;2024-02-16T07:49:01;93501.19;;;33.46;14.11
15568;BME280;7885;42.596;23.044;2024-02-16T07:51:30;93488.63;;;33.72;14.20
15568;BME280;7885;42.596;23.044;2024-02-16T07:53:57;93437.53;;;33.45;13.69
15568;BME280;7885;42.596;23.044;2024-02-16T07:56:24;93496.69;;;34.05;13.53
15568;BME280;7885;42.596;23.044;2024-02-16T07:58:52;93495.03;;;34.15;13.59
15568;BME280;7885;42.596;23.044;2024-02-16T08:01:19;93499.28;;;34.65;13.32
15568;BME280;7885;42.596;23.044;2024-02-16T08:03:46;93477.72;;;34.62;13.31
15568;BME280;7885;42.596;23.044;2024-02-16T08:06:13;93463.22;;;34.33;13.34
15568;BME280;7885;42.596;23.044;2024-02-16T08:08:43;93413.53;;;34.38;12.88
15568;BME280;7885;42.596;23.044;2024-02-16T08:11:09;93510.22;;;35.37;13.06
15568;BME280;7885;42.596;23.044;2024-02-16T08:13:36;93493.81;;;35.62;12.71
15568;BME280;7885;42.596;23.044;2024-02-16T08:16:04;93510.31;;;36.29;12.07
15568;BME280;7885;42.596;23.044;2024-02-16T08:18:32;93494.16;;;36.24;11.92
15568;BME280;7885;42.596;23.044;2024-02-16T08:20:59;93504.75;;;36.24;11.73
15568;BME280;7885;42.596;23.044;2024-02-16T08:23:26;93506.16;;;36.17;11.96
15568;BME280;7885;42.596;23.044;2024-02-16T08:25:54;93472.69;;;35.89;12.04
15568;BME280;7885;42.596;23.044;2024-02-16T08:28:21;93469.25;;;35.25;12.01
15568;BME280;7885;42.596;23.044;2024-02-16T08:30:47;93479.75;;;35.57;12.47
15568;BME280;7885;42.596;23.044;2024-02-16T08:33:14;93497.44;;;35.76;12.33
15568;BME280;7885;42.596;23.044;2024-02-16T08:35:41;93503.78;;;35.82;11.98
15568;BME280;7885;42.596;23.044;2024-02-16T08:38:08;93475.94;;;35.54;12.53
15568;BME280;7885;42.596;23.044;2024-02-16T08:40:36;93495.81;;;35.67;12.33
15568;BME280;7885;42.596;23.044;2024-02-16T08:43:05;93504.88;;;36.18;12.51
15568;BME280;7885;42.596;23.044;2024-02-16T08:45:32;93494.16;;;36.37;11.86
15568;BME280;7885;42.596;23.044;2024-02-16T08:47:59;93486.66;;;36.74;11.90
15568;BME280;7885;42.596;23.044;2024-02-16T08:50:28;93493.47;;;36.44;11.89
15568;BME280;7885;42.596;23.044;2024-02-16T08:52:55;93498.00;;;35.87;11.78
15568;BME280;7885;42.596;23.044;2024-02-16T08:55:22;93454.03;;;34.65;12.48
15568;BME280;7885;42.596;23.044;2024-02-16T08:57:49;93486.53;;;34.90;12.22
15568;BME280;7885;42.596;23.044;2024-02-16T09:00:18;93479.47;;;34.96;12.44
15568;BME280;7885;42.596;23.044;2024-02-16T09:02:44;93497.94;;;34.84;12.72
15568;BME280;7885;42.596;23.044;2024-02-16T09:05:12;93491.16;;;34.56;12.96
15568;BME280;7885;42.596;23.044;2024-02-16T09:07:38;93496.44;;;35.15;12.68
15568;BME280;7885;42.596;23.044;2024-02-16T09:13:27;93497.22;;;35.87;12.25
15568;BME280;7885;42.596;23.044;2024-02-16T09:15:55;93512.56;;;35.65;12.34
15568;BME280;7885;42.596;23.044;2024-02-16T09:18:22;93505.00;;;35.41;12.19
15568;BME280;7885;42.596;23.044;2024-02-16T09:20:49;93514.88;;;35.80;12.39
15568;BME280;7885;42.596;23.044;2024-02-16T09:23:15;93498.63;;;35.22;12.41
15568;BME280;7885;42.596;23.044;2024-02-16T09:25:42;93495.88;;;34.85;12.38
15568;BME280;7885;42.596;23.044;2024-02-16T09:28:11;93476.03;;;34.53;12.83
15568;BME280;7885;42.596;23.044;2024-02-16T09:30:38;93500.28;;;34.99;12.85
15568;BME280;7885;42.596;23.044;2024-02-16T09:33:06;93494.59;;;35.18;12.79
15568;BME280;7885;42.596;23.044;2024-02-16T09:35:33;93499.06;;;34.94;12.36
15568;BME280;7885;42.596;23.044;2024-02-16T09:38:00;93491.91;;;34.56;12.61
15568;BME280;7885;42.596;23.044;2024-02-16T09:40:27;93496.94;;;34.44;12.74
15568;BME280;7885;42.596;23.044;2024-02-16T09:42:55;93497.59;;;33.70;13.57
15568;BME280;7885;42.596;23.044;2024-02-16T09:45:23;93488.34;;;33.94;13.74
15568;BME280;7885;42.596;23.044;2024-02-16T09:47:52;93458.06;;;33.70;13.25
15568;BME280;7885;42.596;23.044;2024-02-16T09:50:22;93482.81;;;33.34;13.78
15568;BME280;7885;42.596;23.044;2024-02-16T09:52:50;93491.78;;;33.63;13.53
15568;BME280;7885;42.596;23.044;2024-02-16T09:55:17;93491.13;;;32.91;13.75
15568;BME280;7885;42.596;23.044;2024-02-16T09:57:44;93449.41;;;32.08;14.17
15568;BME280;7885;42.596;23.044;2024-02-16T10:00:12;93473.69;;;31.31;15.24
15568;BME280;7885;42.596;23.044;2024-02-16T10:02:42;93473.47;;;31.98;14.72
15568;BME280;7885;42.596;23.044;2024-02-16T10:05:12;93480.06;;;32.17;14.59
15568;BME280;7885;42.596;23.044;2024-02-16T10:07:40;93436.28;;;32.57;14.07
15568;BME280;7885;42.596;23.044;2024-02-16T10:10:19;93411.00;;;32.05;14.38
15568;BME280;7885;42.596;23.044;2024-02-16T10:12:46;93417.06;;;32.20;14.16
15568;BME280;7885;42.596;23.044;2024-02-16T10:15:19;93411.22;;;31.61;14.33
15568;BME280;7885;42.596;23.044;2024-02-16T10:17:57;93435.38;;;32.38;14.11
15568;BME280;7885;42.596;23.044;2024-02-16T10:20:23;93439.47;;;33.32;13.57
15568;BME280;7885;42.596;23.044;2024-02-16T10:23:20;93456.13;;;33.60;13.58
15568;BME280;7885;42.596;23.044;2024-02-16T10:25:47;93447.25;;;33.93;13.33
15568;BME280;7885;42.596;23.044;2024-02-16T10:28:14;93454.66;;;34.20;13.92
15568;BME280;7885;42.596;23.044;2024-02-16T10:30:42;93443.94;;;34.50;13.70
15568;BME280;7885;42.596;23.044;2024-02-16T10:33:10;93437.94;;;34.73;13.45
15568;BME280;7885;42.596;23.044;2024-02-16T10:35:38;93420.53;;;34.69;12.80
15568;BME280;7885;42.596;23.044;2024-02-16T10:38:07;93449.91;;;35.42;13.19
15568;BME280;7885;42.596;23.044;2024-02-16T10:40:38;93443.59;;;35.49;12.72
15568;BME280;7885;42.596;23.044;2024-02-16T10:43:06;93453.81;;;35.39;12.95
15568;BME280;7885;42.596;23.044;2024-02-16T10:45:34;93440.94;;;34.93;13.14
15568;BME280;7885;42.596;23.044;2024-02-16T10:48:01;93421.06;;;34.99;13.57
15568;BME280;7885;42.596;23.044;2024-02-16T10:50:31;93427.56;;;35.52;13.08
15568;BME280;7885;42.596;23.044;2024-02-16T10:53:04;93434.88;;;36.00;12.87
15568;BME280;7885;42.596;23.044;2024-02-16T10:55:36;93317.00;;;34.34;12.90
15568;BME280;7885;42.596;23.044;2024-02-16T10:58:03;93388.84;;;34.89;13.33
15568;BME280;7885;42.596;23.044;2024-02-16T11:00:31;93400.66;;;33.62;13.62
15568;BME280;7885;42.596;23.044;2024-02-16T11:02:59;93399.44;;;33.58;13.55
15568;BME280;7885;42.596;23.044;2024-02-16T11:05:34;93408.81;;;34.27;13.70
15568;BME280;7885;42.596;23.044;2024-02-16T11:08:02;93408.03;;;34.45;13.26
15568;BME280;7885;42.596;23.044;2024-02-16T11:10:29;93426.38;;;34.39;12.93
15568;BME280;7885;42.596;23.044;2024-02-16T11:13:02;93368.78;;;33.86;13.88
15568;BME280;7885;42.596;23.044;2024-02-16T11:15:31;93375.66;;;34.28;13.66
15568;BME280;7885;42.596;23.044;2024-02-16T11:17:58;93414.34;;;34.51;12.90
15568;BME280;7885;42.596;23.044;2024-02-16T11:20:26;93392.53;;;34.33;12.98
15568;BME280;7885;42.596;23.044;2024-02-16T11:22:53;93389.00;;;34.65;13.39
15568;BME280;7885;42.596;23.044;2024-02-16T11:25:30;93417.94;;;35.03;12.91
15568;BME280;7885;42.596;23.044;2024-02-16T11:27:58;93380.94;;;34.69;13.49
15568;BME280;7885;42.596;23.044;2024-02-16T11:30:32;93398.72;;;34.50;13.41
15568;BME280;7885;42.596;23.044;2024-02-16T11:32:58;93392.72;;;33.61;13.52
15568;BME280;7885;42.596;23.044;2024-02-16T11:35:25;93292.50;;;32.87;14.21
15568;BME280;7885;42.596;23.044;2024-02-16T11:37:52;93326.72;;;32.72;13.92
15568;BME280;7885;42.596;23.044;2024-02-16T11:40:18;93357.03;;;31.95;14.62
15568;BME280;7885;42.596;23.044;2024-02-16T11:42:45;93374.63;;;31.55;15.25
15568;BME280;7885;42.596;23.044;2024-02-16T11:45:12;93391.13;;;31.23;15.81
15568;BME280;7885;42.596;23.044;2024-02-16T11:47:41;93352.31;;;29.77;17.05
15568;BME280;7885;42.596;23.044;2024-02-16T11:50:09;93329.63;;;28.63;17.22
15568;BME280;7885;42.596;23.044;2024-02-16T11:52:38;93374.19;;;28.29;18.19
15568;BME280;7885;42.596;23.044;2024-02-16T11:55:08;93361.44;;;26.85;18.58
15568;BME280;7885;42.596;23.044;2024-02-16T11:57:35;93315.97;;;26.29;19.42
15568;BME280;7885;42.596;23.044;2024-02-16T12:00:04;93330.75;;;26.35;19.65
15568;BME280;7885;42.596;23.044;2024-02-16T12:05:58;93354.81;;;25.45;19.76
15568;BME280;7885;42.596;23.044;2024-02-16T12:08:32;93365.88;;;25.01;20.36
15568;BME280;7885;42.596;23.044;2024-02-16T12:10:59;93359.34;;;25.04;20.66
15568;BME280;7885;42.596;23.044;2024-02-16T12:13:26;93303.06;;;24.52;20.88
15568;BME280;7885;42.596;23.044;2024-02-16T12:15:53;93313.84;;;24.59;21.57
15568;BME280;7885;42.596;23.044;2024-02-16T12:18:21;93337.53;;;25.02;21.85
15568;BME280;7885;42.596;23.044;2024-02-16T12:21:01;93338.31;;;25.18;21.83
15568;BME280;7885;42.596;23.044;2024-02-16T12:23:29;93362.94;;;25.57;21.33
15568;BME280;7885;42.596;23.044;2024-02-16T12:25:57;93345.88;;;25.41;21.26
15568;BME280;7885;42.596;23.044;2024-02-16T12:28:25;93342.19;;;25.20;21.54
15568;BME280;7885;42.596;23.044;2024-02-16T12:30:53;93350.38;;;25.38;21.45
15568;BME280;7885;42.596;23.044;2024-02-16T12:33:20;93345.38;;;25.42;21.75
15568;BME280;7885;42.596;23.044;2024-02-16T12:35:47;93343.13;;;25.55;21.54
15568;BME280;7885;42.596;23.044;2024-02-16T12:38:15;93322.88;;;25.31;21.46
15568;BME280;7885;42.596;23.044;2024-02-16T12:40:44;93280.50;;;25.27;21.74
15568;BME280;7885;42.596;23.044;2024-02-16T12:43:11;93298.97;;;25.39;21.10
15568;BME280;7885;42.596;23.044;2024-02-16T12:45:39;93335.53;;;25.71;21.46
15568;BME280;7885;42.596;23.044;2024-02-16T12:48:06;93336.78;;;25.84;21.26
15568;BME280;7885;42.596;23.044;2024-02-16T12:50:35;93336.97;;;25.66;20.75
15568;BME280;7885;42.596;23.044;2024-02-16T12:53:03;93333.91;;;25.79;20.67
15568;BME280;7885;42.596;23.044;2024-02-16T12:55:31;93348.09;;;25.37;20.63
15568;BME280;7885;42.596;23.044;2024-02-16T12:57:58;93334.44;;;24.86;20.99
15568;BME280;7885;42.596;23.044;2024-02-16T13:00:24;93337.22;;;24.77;21.06
15568;BME280;7885;42.596;23.044;2024-02-16T13:02:51;93248.03;;;24.00;22.00
15568;BME280;7885;42.596;23.044;2024-02-16T13:05:18;93298.91;;;24.24;22.03
15568;BME280;7885;42.596;23.044;2024-02-16T13:07:44;93330.16;;;24.19;21.84
15568;BME280;7885;42.596;23.044;2024-02-16T13:10:11;93327.69;;;24.21;22.51
15568;BME280;7885;42.596;23.044;2024-02-16T13:12:39;93299.34;;;23.99;22.25
15568;BME280;7885;42.596;23.044;2024-02-16T13:15:08;93333.88;;;24.07;22.62
15568;BME280;7885;42.596;23.044;2024-02-16T13:17:35;93250.72;;;23.52;22.53
15568;BME280;7885;42.596;23.044;2024-02-16T13:20:02;93325.16;;;23.90;23.00
15568;BME280;7885;42.596;23.044;2024-02-16T13:22:33;93323.25;;;23.63;22.92
15568;BME280;7885;42.596;23.044;2024-02-16T13:25:01;93320.34;;;23.58;23.25